createdAt,value
2023-01-15T00:02:25.780Z,12.90
2023-01-15T00:04:54.419Z,11.10
2023-01-15T00:07:22.870Z,11.20
2023-01-15T00:09:51.777Z,12.30
2023-01-15T00:12:20.222Z,10.40
2023-01-15T00:14:49.282Z,12.90
2023-01-15T00:17:17.626Z,10.70
2023-01-15T00:19:47.244Z,11.50
2023-01-15T00:22:16.057Z,12.40
2023-01-15T00:25:03.026Z,13.30
2023-01-15T00:27:39.300Z,10.90
2023-01-15T00:30:12.139Z,10.70
2023-01-15T00:32:44.555Z,11.90
2023-01-15T00:35:21.360Z,11.10
2023-01-15T00:37:51.075Z,9.00
2023-01-15T00:40:20.743Z,12.00
2023-01-15T00:42:53.964Z,12.90
2023-01-15T00:45:24.217Z,12.20
2023-01-15T00:47:52.845Z,8.90
2023-01-15T00:50:22.809Z,8.30
2023-01-15T00:52:51.091Z,9.60
2023-01-15T00:55:19.702Z,9.90
2023-01-15T00:57:48.312Z,8.70
2023-01-15T01:00:17.212Z,8.70
2023-01-15T01:02:45.786Z,11.50
2023-01-15T01:05:14.306Z,9.80
2023-01-15T01:07:43.707Z,7.70
2023-01-15T01:10:15.167Z,8.80
2023-01-15T01:12:43.477Z,11.50
2023-01-15T01:15:11.829Z,10.40
2023-01-15T01:17:40.926Z,11.40
2023-01-15T01:20:10.438Z,10.00
2023-01-15T01:22:39.733Z,12.20
2023-01-15T01:25:09.754Z,8.60
2023-01-15T01:27:38.384Z,8.80
2023-01-15T01:30:07.811Z,8.00
2023-01-15T01:32:36.214Z,8.90
2023-01-15T01:35:05.222Z,7.30
2023-01-15T01:37:35.797Z,11.10
2023-01-15T01:40:05.353Z,8.90
2023-01-15T01:42:33.772Z,7.70
2023-01-15T01:45:07.375Z,6.00
2023-01-15T01:50:09.757Z,9.00
2023-01-15T01:52:47.386Z,8.80
2023-01-15T01:55:18.494Z,8.30
2023-01-15T01:57:50.695Z,7.30
2023-01-15T02:00:20.485Z,6.50
2023-01-15T02:02:50.621Z,9.10
2023-01-15T02:05:31.753Z,7.20
2023-01-15T02:08:01.218Z,7.30
2023-01-15T02:10:29.811Z,8.60
2023-01-15T02:13:02.038Z,7.80
2023-01-15T02:15:40.785Z,9.70
2023-01-15T02:18:09.310Z,7.80
2023-01-15T02:20:41.271Z,7.40
2023-01-15T02:23:33.780Z,10.00
2023-01-15T02:26:21.568Z,7.70
2023-01-15T02:28:54.400Z,5.90
2023-01-15T02:31:32.577Z,8.00
2023-01-15T02:34:12.169Z,8.20
2023-01-15T02:36:44.565Z,11.80
2023-01-15T02:39:23.035Z,8.30
2023-01-15T02:41:55.397Z,10.20
2023-01-15T02:44:27.384Z,8.30
2023-01-15T02:46:59.758Z,7.40
2023-01-15T02:49:28.832Z,8.20
2023-01-15T02:52:15.246Z,8.70
2023-01-15T02:54:49.060Z,7.80
2023-01-15T02:57:21.008Z,6.40
2023-01-15T02:59:58.084Z,7.30
2023-01-15T03:02:43.029Z,5.20
2023-01-15T03:05:21.275Z,6.50
2023-01-15T03:08:02.275Z,8.30
2023-01-15T03:10:43.893Z,7.40
2023-01-15T03:13:20.458Z,7.80
2023-01-15T03:16:14.205Z,8.30
2023-01-15T03:19:06.051Z,7.40
2023-01-15T03:21:40.735Z,6.20
2023-01-15T03:24:12.034Z,7.00
2023-01-15T03:26:40.814Z,7.00
2023-01-15T03:29:11.324Z,5.90
2023-01-15T03:31:42.141Z,6.10
2023-01-15T03:34:11.935Z,5.90
2023-01-15T03:36:40.935Z,5.40
2023-01-15T03:39:09.547Z,7.80
2023-01-15T03:41:58.691Z,5.60
2023-01-15T03:44:39.446Z,6.70
2023-01-15T03:47:28.402Z,6.90
2023-01-15T03:50:16.316Z,4.70
2023-01-15T03:52:55.581Z,4.50
2023-01-15T03:55:46.203Z,4.90
2023-01-15T03:58:24.294Z,7.40
2023-01-15T04:00:56.435Z,6.20
2023-01-15T04:03:26.871Z,5.20
2023-01-15T04:05:59.363Z,6.70
2023-01-15T04:08:31.471Z,5.70
2023-01-15T04:11:01.673Z,7.00
2023-01-15T04:13:33.704Z,5.30
2023-01-15T04:16:03.185Z,6.20
2023-01-15T04:18:32.257Z,6.60
2023-01-15T04:21:00.563Z,6.00
2023-01-15T04:23:29.935Z,5.60
2023-01-15T04:25:58.227Z,5.30
2023-01-15T04:28:26.537Z,4.80
2023-01-15T04:30:57.923Z,5.70
2023-01-15T04:33:27.105Z,5.60
2023-01-15T04:35:55.457Z,5.80
2023-01-15T04:38:25.229Z,6.70
2023-01-15T04:41:12.627Z,7.90
2023-01-15T04:43:59.588Z,5.10
2023-01-15T04:46:27.925Z,7.60
2023-01-15T04:48:56.289Z,9.80
2023-01-15T04:51:25.546Z,5.60
2023-01-15T04:53:54.054Z,5.90
2023-01-15T04:56:22.796Z,7.10
2023-01-15T04:58:51.556Z,4.80
2023-01-15T05:01:20.110Z,5.60
2023-01-15T05:03:48.776Z,4.60
2023-01-15T05:06:18.682Z,7.60
2023-01-15T05:08:47.083Z,6.40
2023-01-15T05:11:15.439Z,6.50
2023-01-15T05:13:43.824Z,6.10
2023-01-15T05:16:20.765Z,5.70
2023-01-15T05:18:49.054Z,6.60
2023-01-15T05:21:23.131Z,5.90
2023-01-15T05:23:53.708Z,6.60
2023-01-15T05:26:23.015Z,5.20
2023-01-15T05:28:55.009Z,5.20
2023-01-15T05:31:24.537Z,5.50
2023-01-15T05:33:54.403Z,6.80
2023-01-15T05:36:28.862Z,4.30
2023-01-15T05:39:02.442Z,4.90
2023-01-15T05:44:19.978Z,5.50
2023-01-15T05:46:49.309Z,7.20
2023-01-15T05:49:21.798Z,6.30
2023-01-15T05:51:51.437Z,4.90
2023-01-15T05:54:23.044Z,7.00
2023-01-15T05:56:51.990Z,10.40
2023-01-15T05:59:23.635Z,6.50
2023-01-15T06:01:53.169Z,8.20
2023-01-15T06:04:22.323Z,6.30
2023-01-15T06:06:52.411Z,7.90
2023-01-15T06:09:23.371Z,6.10
2023-01-15T06:11:53.819Z,8.00
2023-01-15T06:14:22.213Z,6.60
2023-01-15T06:16:51.017Z,7.20
2023-01-15T06:19:19.643Z,7.80
2023-01-15T06:21:49.171Z,6.80
2023-01-15T06:24:18.161Z,8.70
2023-01-15T06:26:46.691Z,7.50
2023-01-15T06:29:18.978Z,6.70
2023-01-15T06:31:49.520Z,8.90
2023-01-15T06:34:18.097Z,7.20
2023-01-15T06:36:46.928Z,7.70
2023-01-15T06:39:15.510Z,6.80
2023-01-15T06:42:02.013Z,6.40
2023-01-15T06:44:49.015Z,6.50
2023-01-15T06:47:23.385Z,6.50
2023-01-15T06:49:58.055Z,7.90
2023-01-15T06:52:28.795Z,6.70
2023-01-15T06:54:57.062Z,7.40
2023-01-15T06:57:25.582Z,10.50
2023-01-15T06:59:53.906Z,6.60
2023-01-15T07:02:22.219Z,6.60
2023-01-15T07:04:52.241Z,9.80
2023-01-15T07:07:21.506Z,8.20
2023-01-15T07:09:50.685Z,6.10
2023-01-15T07:12:19.696Z,8.80
2023-01-15T07:14:48.315Z,7.00
2023-01-15T07:17:16.731Z,6.50
2023-01-15T07:19:46.260Z,11.80
2023-01-15T07:22:14.519Z,7.10
2023-01-15T07:24:42.878Z,8.90
2023-01-15T07:27:11.243Z,6.60
2023-01-15T07:29:39.318Z,8.20
2023-01-15T07:32:07.530Z,7.90
2023-01-15T07:34:36.162Z,10.30
2023-01-15T07:37:04.336Z,8.10
2023-01-15T07:39:32.467Z,8.10
2023-01-15T07:42:18.795Z,8.10
2023-01-15T07:45:05.582Z,8.60
2023-01-15T07:47:52.363Z,8.80
2023-01-15T07:50:22.970Z,9.60
2023-01-15T07:52:53.143Z,8.50
2023-01-15T07:55:23.010Z,9.10
2023-01-15T07:57:52.480Z,14.00
2023-01-15T08:00:23.205Z,12.20
2023-01-15T08:02:52.135Z,9.60
2023-01-15T08:05:20.861Z,9.60
2023-01-15T08:07:50.167Z,11.40
2023-01-15T08:10:19.796Z,9.30
2023-01-15T08:13:08.427Z,9.60
2023-01-15T08:15:40.079Z,7.90
2023-01-15T08:18:08.357Z,7.40
2023-01-15T08:20:37.751Z,8.40
2023-01-15T08:23:06.057Z,9.70
2023-01-15T08:25:34.262Z,9.50
2023-01-15T08:28:03.430Z,9.30
2023-01-15T08:30:31.748Z,8.90
2023-01-15T08:33:03.339Z,11.40
2023-01-15T08:35:32.137Z,9.50
2023-01-15T08:38:07.261Z,7.40
2023-01-15T08:40:57.124Z,11.20
2023-01-15T08:43:29.755Z,11.10
2023-01-15T08:46:04.025Z,9.40
2023-01-15T08:48:35.754Z,7.90
2023-01-15T08:51:10.210Z,8.90
2023-01-15T08:53:39.142Z,9.80
2023-01-15T08:56:19.069Z,8.90
2023-01-15T08:58:48.929Z,8.90
2023-01-15T09:01:17.412Z,7.40
2023-01-15T09:03:45.690Z,7.90
2023-01-15T09:06:14.184Z,8.80
2023-01-15T09:08:42.454Z,8.30
2023-01-15T09:11:13.091Z,5.90
2023-01-15T09:13:44.199Z,6.40
2023-01-15T09:16:12.947Z,7.90
2023-01-15T09:18:41.705Z,8.90
2023-01-15T09:21:10.342Z,8.30
2023-01-15T09:23:38.709Z,6.50
2023-01-15T09:26:08.162Z,8.70
2023-01-15T09:28:36.416Z,6.50
2023-01-15T09:31:04.929Z,7.40
2023-01-15T09:33:33.215Z,9.10
2023-01-15T09:36:01.545Z,6.80
2023-01-15T09:38:29.780Z,9.60
2023-01-15T09:41:08.711Z,7.70
2023-01-15T09:43:52.463Z,8.80
2023-01-15T09:46:26.109Z,7.30
2023-01-15T09:49:22.319Z,6.50
2023-01-15T09:52:00.867Z,7.00
2023-01-15T09:54:44.105Z,8.10
2023-01-15T09:57:14.262Z,7.60
2023-01-15T09:59:49.328Z,8.90
2023-01-15T10:02:45.369Z,10.10
2023-01-15T10:05:20.409Z,8.90
2023-01-15T10:07:58.093Z,8.60
2023-01-15T10:10:34.177Z,11.10
2023-01-15T10:13:18.476Z,10.80
2023-01-15T10:15:48.946Z,10.40
2023-01-15T10:18:21.101Z,9.50
2023-01-15T10:20:59.750Z,10.50
2023-01-15T10:23:45.066Z,12.00
2023-01-15T10:26:54.916Z,9.50
2023-01-15T10:29:46.650Z,10.10
2023-01-15T10:32:36.839Z,13.20
2023-01-15T10:35:24.567Z,8.10
2023-01-15T10:38:10.806Z,6.90
2023-01-15T10:40:54.040Z,4.20
2023-01-15T10:43:51.635Z,3.00
2023-01-15T10:46:28.413Z,3.10
2023-01-15T10:48:58.372Z,3.60
2023-01-15T10:51:48.660Z,3.80
2023-01-15T10:54:38.451Z,6.00
2023-01-15T10:57:13.937Z,5.90
2023-01-15T10:59:59.494Z,5.40
2023-01-15T11:02:50.310Z,7.50
2023-01-15T11:05:21.412Z,6.40
2023-01-15T11:10:41.804Z,5.40
2023-01-15T11:13:40.356Z,4.80
2023-01-15T11:16:36.090Z,5.90
2023-01-15T11:19:25.673Z,10.10
2023-01-15T11:21:54.788Z,10.30
2023-01-15T11:24:23.183Z,8.80
2023-01-15T11:26:55.007Z,8.80
2023-01-15T11:29:34.083Z,9.20
2023-01-15T11:32:02.906Z,10.10
2023-01-15T11:34:32.922Z,13.00
2023-01-15T11:37:06.013Z,7.90
2023-01-15T11:39:34.393Z,6.60
2023-01-15T11:42:34.411Z,7.90
2023-01-15T11:45:21.823Z,12.70
2023-01-15T11:48:10.901Z,9.90
2023-01-15T11:51:20.324Z,9.40
2023-01-15T11:53:54.414Z,8.60
2023-01-15T11:56:26.758Z,12.20
2023-01-15T11:58:57.783Z,8.20
2023-01-15T12:01:32.660Z,13.90
2023-01-15T12:04:06.920Z,13.40
2023-01-15T12:06:39.934Z,16.90
2023-01-15T12:09:36.020Z,12.70
2023-01-15T12:12:22.276Z,14.00
2023-01-15T12:14:58.401Z,13.00
2023-01-15T12:17:32.718Z,14.60
2023-01-15T12:20:19.897Z,17.20
2023-01-15T12:23:07.275Z,11.80
2023-01-15T12:25:49.468Z,9.80
2023-01-15T12:28:40.856Z,9.50
2023-01-15T12:31:17.453Z,9.00
2023-01-15T12:34:06.184Z,8.20
2023-01-15T12:36:42.745Z,10.70
2023-01-15T12:39:13.776Z,9.70
2023-01-15T12:42:04.785Z,9.00
2023-01-15T12:45:05.835Z,23.70
2023-01-15T12:47:37.264Z,27.00
2023-01-15T12:50:28.791Z,17.40
2023-01-15T12:53:32.415Z,14.70
2023-01-15T12:56:31.292Z,15.00
2023-01-15T12:59:27.652Z,18.30
2023-01-15T13:02:20.468Z,16.80
2023-01-15T13:04:59.181Z,16.70
2023-01-15T13:07:37.472Z,15.70
2023-01-15T13:10:23.071Z,14.50
2023-01-15T13:12:54.359Z,21.50
2023-01-15T13:15:31.393Z,22.90
2023-01-15T13:18:09.985Z,20.50
2023-01-15T13:20:52.720Z,18.10
2023-01-15T13:23:30.484Z,14.40
2023-01-15T13:26:26.455Z,14.60
2023-01-15T13:29:13.178Z,16.10
2023-01-15T13:31:57.447Z,11.10
2023-01-15T13:34:50.595Z,10.80
2023-01-15T13:37:25.645Z,11.40
2023-01-15T13:40:23.252Z,13.30
2023-01-15T13:42:53.671Z,10.80
2023-01-15T13:45:27.949Z,10.40
2023-01-15T13:48:02.947Z,14.00
2023-01-15T13:50:35.500Z,10.90
2023-01-15T13:53:37.323Z,10.60
2023-01-15T13:56:09.938Z,10.20
2023-01-15T13:58:41.816Z,10.80
2023-01-15T14:01:20.641Z,12.60
2023-01-15T14:04:07.781Z,15.60
2023-01-15T14:06:42.030Z,14.10
2023-01-15T14:09:12.591Z,10.30
2023-01-15T14:12:12.004Z,12.90
2023-01-15T14:15:15.397Z,11.60
2023-01-15T14:17:57.784Z,10.70
2023-01-15T14:20:35.827Z,9.80
2023-01-15T14:23:15.795Z,12.50
2023-01-15T14:26:02.168Z,11.70
2023-01-15T14:28:51.996Z,13.40
2023-01-15T14:31:39.066Z,11.90
2023-01-15T14:34:16.374Z,12.30
2023-01-15T14:37:00.883Z,13.10
2023-01-15T14:39:49.474Z,10.40
2023-01-15T14:42:40.420Z,8.60
2023-01-15T14:45:30.699Z,10.80
2023-01-15T14:48:35.457Z,12.10
2023-01-15T14:51:18.832Z,12.20
2023-01-15T14:53:59.892Z,8.00
2023-01-15T14:56:36.332Z,10.50
2023-01-15T14:59:25.992Z,7.30
2023-01-15T15:02:13.643Z,8.00
2023-01-15T15:04:56.513Z,10.50
2023-01-15T15:07:29.387Z,14.30
2023-01-15T15:10:17.829Z,15.60
2023-01-15T15:13:02.549Z,13.50
2023-01-15T15:16:00.220Z,15.50
2023-01-15T15:18:42.727Z,14.20
2023-01-15T15:21:26.470Z,15.90
2023-01-15T15:26:47.092Z,13.60
2023-01-15T15:29:18.994Z,13.90
2023-01-15T15:31:56.183Z,11.50
2023-01-15T15:34:40.953Z,12.30
2023-01-15T15:37:18.763Z,12.20
2023-01-15T15:40:02.291Z,14.00
2023-01-15T15:45:42.396Z,12.70
2023-01-15T15:48:40.594Z,15.70
2023-01-15T15:51:33.496Z,15.20
2023-01-15T15:54:26.540Z,11.70
2023-01-15T15:57:09.800Z,16.00
2023-01-15T15:59:46.400Z,13.50
2023-01-15T16:02:25.544Z,12.40
2023-01-15T16:04:56.602Z,12.50
2023-01-15T16:07:27.402Z,14.30
2023-01-15T16:10:02.457Z,13.70
2023-01-15T16:12:44.811Z,15.50
2023-01-15T16:15:20.557Z,13.70
2023-01-15T16:17:50.799Z,18.60
2023-01-15T16:20:21.321Z,21.10
2023-01-15T16:23:04.506Z,14.20
2023-01-15T16:25:41.101Z,16.30
2023-01-15T16:28:26.864Z,13.90
2023-01-15T16:31:02.865Z,13.80
2023-01-15T16:33:36.529Z,12.70
2023-01-15T16:36:06.575Z,12.50
2023-01-15T16:38:41.362Z,11.10
2023-01-15T16:41:21.158Z,16.90
2023-01-15T16:43:56.804Z,10.80
2023-01-15T16:46:29.285Z,10.40
2023-01-15T16:49:23.953Z,16.60
2023-01-15T16:51:54.761Z,15.00
2023-01-15T16:54:32.169Z,15.00
2023-01-15T16:57:23.861Z,10.90
2023-01-15T16:59:59.487Z,13.60
2023-01-15T17:02:35.023Z,12.00
2023-01-15T17:05:21.357Z,12.80
2023-01-15T17:07:51.798Z,9.50
2023-01-15T17:10:23.619Z,9.10
2023-01-15T17:13:01.239Z,11.60
2023-01-15T17:15:36.876Z,11.20
2023-01-15T17:18:21.496Z,9.80
2023-01-15T17:20:50.478Z,10.50
2023-01-15T17:23:24.741Z,8.70
2023-01-15T17:25:54.178Z,9.40
2023-01-15T17:28:24.947Z,8.90
2023-01-15T17:30:59.090Z,11.80
2023-01-15T17:33:30.207Z,16.80
2023-01-15T17:36:02.027Z,11.70
2023-01-15T17:38:30.361Z,12.30
2023-01-15T17:40:59.359Z,12.60
2023-01-15T17:43:27.851Z,9.30
2023-01-15T17:45:56.235Z,12.50
2023-01-15T17:48:24.556Z,12.00
2023-01-15T17:50:54.673Z,9.60
2023-01-15T17:53:23.311Z,15.20
2023-01-15T17:56:10.988Z,13.20
2023-01-15T17:58:57.799Z,11.70
2023-01-15T18:01:46.961Z,10.90
2023-01-15T18:04:43.193Z,9.20
2023-01-15T18:07:13.457Z,12.60
2023-01-15T18:09:42.686Z,13.60
2023-01-15T18:12:11.303Z,13.80
2023-01-15T18:14:39.754Z,13.00
2023-01-15T18:17:08.161Z,13.20
2023-01-15T18:19:36.535Z,12.20
2023-01-15T18:22:05.123Z,12.70
2023-01-15T18:24:33.384Z,11.80
2023-01-15T18:27:02.089Z,11.10
2023-01-15T18:29:30.956Z,14.70
2023-01-15T18:31:59.336Z,12.60
2023-01-15T18:34:28.729Z,12.70
2023-01-15T18:36:57.152Z,13.00
2023-01-15T18:39:25.498Z,12.10
2023-01-15T18:41:53.749Z,10.90
2023-01-15T18:44:43.581Z,15.70
2023-01-15T18:47:15.225Z,16.90
2023-01-15T18:49:45.816Z,13.10
2023-01-15T18:52:38.441Z,13.60
2023-01-15T18:55:07.667Z,14.50
2023-01-15T18:57:36.165Z,12.20
2023-01-15T19:00:05.148Z,12.10
2023-01-15T19:02:33.855Z,10.20
2023-01-15T19:05:02.155Z,11.50
2023-01-15T19:07:30.434Z,12.30
2023-01-15T19:09:59.464Z,10.70
2023-01-15T19:12:29.535Z,13.00
2023-01-15T19:15:16.522Z,14.00
2023-01-15T19:18:03.805Z,14.60
2023-01-15T19:20:33.026Z,12.20
2023-01-15T19:23:05.205Z,11.90
2023-01-15T19:25:39.428Z,11.50
2023-01-15T19:30:38.920Z,13.50
2023-01-15T19:33:09.455Z,12.40
2023-01-15T19:35:39.227Z,13.40
2023-01-15T19:38:08.695Z,13.70
2023-01-15T19:40:40.760Z,13.40
2023-01-15T19:43:28.664Z,13.50
2023-01-15T19:46:16.058Z,13.20
2023-01-15T19:49:11.254Z,14.50
2023-01-15T19:51:58.207Z,13.00
2023-01-15T19:54:45.240Z,13.30
2023-01-15T19:57:13.548Z,11.90
2023-01-15T19:59:47.718Z,13.10
2023-01-15T20:02:16.862Z,11.50
2023-01-15T20:04:45.835Z,10.60
2023-01-15T20:07:14.111Z,14.10
2023-01-15T20:09:43.889Z,12.40
2023-01-15T20:12:31.476Z,12.60
2023-01-15T20:15:00.146Z,11.80
2023-01-15T20:17:29.961Z,13.30
2023-01-15T20:19:59.007Z,11.40
2023-01-15T20:22:31.659Z,8.80
2023-01-15T20:25:00.056Z,13.50
2023-01-15T20:27:31.724Z,12.90
2023-01-15T20:30:02.481Z,11.60
2023-01-15T20:32:32.072Z,9.90
2023-01-15T20:35:00.664Z,13.50
2023-01-15T20:37:30.127Z,10.70
2023-01-15T20:39:58.431Z,11.60
2023-01-15T20:42:48.172Z,11.00
2023-01-15T20:45:17.347Z,11.80
2023-01-15T20:48:04.930Z,10.90
2023-01-15T20:50:36.142Z,12.80
2023-01-15T20:53:05.939Z,13.60
2023-01-15T20:55:54.479Z,9.30
2023-01-15T20:58:25.201Z,11.30
2023-01-15T21:00:56.548Z,13.20
2023-01-15T21:03:25.390Z,11.70
2023-01-15T21:05:57.148Z,13.10
2023-01-15T21:08:25.337Z,13.70
2023-01-15T21:10:54.916Z,11.00
2023-01-15T21:13:23.787Z,12.00
2023-01-15T21:15:57.570Z,13.00
2023-01-15T21:18:27.972Z,12.60
2023-01-15T21:20:56.202Z,13.20
2023-01-15T21:23:30.631Z,15.90
2023-01-15T21:26:03.652Z,13.20
2023-01-15T21:28:34.853Z,16.40
2023-01-15T21:31:07.633Z,21.30
2023-01-15T21:33:36.461Z,16.90
2023-01-15T21:36:10.565Z,15.30
2023-01-15T21:38:39.987Z,15.60
2023-01-15T21:41:14.373Z,12.90
2023-01-15T21:44:02.013Z,9.60
2023-01-15T21:46:30.784Z,8.30
2023-01-15T21:48:59.396Z,11.70
2023-01-15T21:51:28.274Z,11.10
2023-01-15T21:54:00.090Z,8.00
2023-01-15T21:56:29.027Z,8.90
2023-01-15T21:58:57.480Z,10.80
2023-01-15T22:01:26.226Z,8.30
2023-01-15T22:03:54.708Z,9.70
2023-01-15T22:06:23.123Z,8.00
2023-01-15T22:08:54.363Z,7.90
2023-01-15T22:11:23.012Z,7.70
2023-01-15T22:14:05.338Z,8.10
2023-01-15T22:16:33.740Z,8.00
2023-01-15T22:19:02.143Z,6.80
2023-01-15T22:21:30.368Z,6.70
2023-01-15T22:23:58.634Z,7.30
2023-01-15T22:26:30.336Z,7.50
2023-01-15T22:28:59.337Z,8.00
2023-01-15T22:31:28.612Z,7.40
2023-01-15T22:33:59.113Z,6.40
2023-01-15T22:36:27.600Z,6.70
2023-01-15T22:38:56.672Z,7.00
2023-01-15T22:41:43.427Z,7.10
2023-01-15T22:44:13.963Z,6.90
2023-01-15T22:46:42.251Z,7.30
2023-01-15T22:49:10.630Z,6.20
2023-01-15T22:51:39.206Z,6.00
2023-01-15T22:54:07.542Z,7.80
2023-01-15T22:56:36.202Z,7.50
2023-01-15T22:59:06.376Z,8.60
2023-01-15T23:01:35.220Z,4.90
2023-01-15T23:04:05.301Z,8.10
2023-01-15T23:06:33.653Z,5.60
2023-01-15T23:09:04.932Z,5.20
2023-01-15T23:11:34.298Z,5.00
2023-01-15T23:14:03.159Z,7.30
2023-01-15T23:16:31.340Z,6.90
2023-01-15T23:18:59.475Z,6.40
2023-01-15T23:21:28.642Z,5.00
2023-01-15T23:23:59.046Z,5.20
2023-01-15T23:26:30.772Z,5.20
2023-01-15T23:28:59.782Z,5.00
2023-01-15T23:31:28.758Z,4.80
2023-01-15T23:33:56.971Z,6.60
2023-01-15T23:36:25.382Z,8.40
2023-01-15T23:38:53.610Z,5.40
2023-01-15T23:41:43.512Z,5.30
2023-01-15T23:44:37.581Z,7.50
2023-01-15T23:47:07.835Z,6.30
2023-01-15T23:49:36.777Z,7.10
2023-01-15T23:52:05.086Z,8.60
2023-01-15T23:54:33.456Z,7.30
2023-01-15T23:57:02.329Z,8.30
2023-01-15T23:59:30.751Z,10.80
